Rogers, Connecticut
Current Conditions -  °F | °C
As of 5:52 AM on Thursday 23 Oct 2014 (Local Time) from KIJD Reporting Station
Overcast Overcast  
Wind Chill: 52°   Ceiling: 2000
Heat Index: 52°   Visibility: 10mi
Dew Point: 45°   Wind: 13mph
Humidity: 77%   Direction: 10°N
Pressure: 29.67"   Gusts: 25mph
Location:  41.84°N, 71.91°W
Report Text: KIJD 230952Z AUTO 01011G22KT 10SM OVC020 11/07 A2967 RMK AO2 PK WND 01029/0908 SLP046 T01110072
Loading
Personal Weather Stations






























Interactive Weather Map
Tropical Storm Tracking
New forecast layout! Learn more

10-Day Weather Forecast

Advertisements
Track Severe Weather on mobile